sensor_id;sensor_type;location;lat;lon;timestamp;temperature;humidity
27266;DHT22;14766;51.380;13.762;2023-04-06T00:01:34;7.20;50.90
27266;DHT22;14766;51.380;13.762;2023-04-06T00:04:01;7.20;50.80
27266;DHT22;14766;51.380;13.762;2023-04-06T00:06:29;7.10;50.80
27266;DHT22;14766;51.380;13.762;2023-04-06T00:08:56;7.10;51.00
27266;DHT22;14766;51.380;13.762;2023-04-06T00:11:23;7.10;51.00
27266;DHT22;14766;51.380;13.762;2023-04-06T00:13:51;7.00;51.10
27266;DHT22;14766;51.380;13.762;2023-04-06T00:16:19;7.00;51.30
27266;DHT22;14766;51.380;13.762;2023-04-06T00:18:47;6.90;51.40
27266;DHT22;14766;51.380;13.762;2023-04-06T00:21:14;6.90;51.40
27266;DHT22;14766;51.380;13.762;2023-04-06T00:23:43;6.80;51.40
27266;DHT22;14766;51.380;13.762;2023-04-06T00:26:11;6.80;51.60
27266;DHT22;14766;51.380;13.762;2023-04-06T00:28:44;6.70;51.70
27266;DHT22;14766;51.380;13.762;2023-04-06T00:31:12;6.70;51.80
27266;DHT22;14766;51.380;13.762;2023-04-06T00:33:39;6.70;51.90
27266;DHT22;14766;51.380;13.762;2023-04-06T00:36:07;6.60;51.90
27266;DHT22;14766;51.380;13.762;2023-04-06T00:38:35;6.60;51.80
27266;DHT22;14766;51.380;13.762;2023-04-06T00:41:04;6.60;51.90
27266;DHT22;14766;51.380;13.762;2023-04-06T00:43:31;6.50;51.80
27266;DHT22;14766;51.380;13.762;2023-04-06T00:45:59;6.50;51.80
27266;DHT22;14766;51.380;13.762;2023-04-06T00:48:26;6.50;51.80
27266;DHT22;14766;51.380;13.762;2023-04-06T00:50:53;6.50;51.80
27266;DHT22;14766;51.380;13.762;2023-04-06T00:53:21;6.50;51.80
27266;DHT22;14766;51.380;13.762;2023-04-06T00:55:52;6.50;51.80
27266;DHT22;14766;51.380;13.762;2023-04-06T00:58:20;6.40;51.90
27266;DHT22;14766;51.380;13.762;2023-04-06T01:00:53;6.40;51.90
27266;DHT22;14766;51.380;13.762;2023-04-06T01:03:22;6.40;51.80
27266;DHT22;14766;51.380;13.762;2023-04-06T01:05:50;6.30;51.80
27266;DHT22;14766;51.380;13.762;2023-04-06T01:08:25;6.30;51.90
27266;DHT22;14766;51.380;13.762;2023-04-06T01:11:00;6.20;52.00
27266;DHT22;14766;51.380;13.762;2023-04-06T01:13:29;6.20;52.00
27266;DHT22;14766;51.380;13.762;2023-04-06T01:16:00;6.20;52.10
27266;DHT22;14766;51.380;13.762;2023-04-06T01:18:41;6.10;52.20
27266;DHT22;14766;51.380;13.762;2023-04-06T01:21:30;6.10;52.30
27266;DHT22;14766;51.380;13.762;2023-04-06T01:24:10;6.10;52.50
27266;DHT22;14766;51.380;13.762;2023-04-06T01:26:52;6.00;52.40
27266;DHT22;14766;51.380;13.762;2023-04-06T01:29:19;6.00;52.50
27266;DHT22;14766;51.380;13.762;2023-04-06T01:31:47;6.00;52.50
27266;DHT22;14766;51.380;13.762;2023-04-06T01:34:15;6.00;52.60
27266;DHT22;14766;51.380;13.762;2023-04-06T01:36:44;5.90;52.50
27266;DHT22;14766;51.380;13.762;2023-04-06T01:39:23;6.00;52.60
27266;DHT22;14766;51.380;13.762;2023-04-06T01:41:51;5.90;52.70
27266;DHT22;14766;51.380;13.762;2023-04-06T01:44:20;5.90;52.80
27266;DHT22;14766;51.380;13.762;2023-04-06T01:46:54;5.90;52.70
27266;DHT22;14766;51.380;13.762;2023-04-06T01:49:22;5.90;52.80
27266;DHT22;14766;51.380;13.762;2023-04-06T01:51:53;5.90;52.80
27266;DHT22;14766;51.380;13.762;2023-04-06T01:54:25;5.80;52.80
27266;DHT22;14766;51.380;13.762;2023-04-06T01:57:12;5.80;52.90
27266;DHT22;14766;51.380;13.762;2023-04-06T01:59:47;5.80;53.00
27266;DHT22;14766;51.380;13.762;2023-04-06T02:02:26;5.80;53.00
27266;DHT22;14766;51.380;13.762;2023-04-06T02:05:01;5.80;53.00
27266;DHT22;14766;51.380;13.762;2023-04-06T02:07:28;5.80;53.10
27266;DHT22;14766;51.380;13.762;2023-04-06T02:09:56;5.70;53.00
27266;DHT22;14766;51.380;13.762;2023-04-06T02:12:31;5.70;53.20
27266;DHT22;14766;51.380;13.762;2023-04-06T02:14:59;5.70;53.20
27266;DHT22;14766;51.380;13.762;2023-04-06T02:17:26;5.60;53.10
27266;DHT22;14766;51.380;13.762;2023-04-06T02:19:54;5.60;53.20
27266;DHT22;14766;51.380;13.762;2023-04-06T02:22:21;5.60;53.30
27266;DHT22;14766;51.380;13.762;2023-04-06T02:24:48;5.50;53.30
27266;DHT22;14766;51.380;13.762;2023-04-06T02:27:15;5.50;53.40
27266;DHT22;14766;51.380;13.762;2023-04-06T02:29:46;5.50;53.40
27266;DHT22;14766;51.380;13.762;2023-04-06T02:32:17;5.50;53.40
27266;DHT22;14766;51.380;13.762;2023-04-06T02:34:45;5.50;53.60
27266;DHT22;14766;51.380;13.762;2023-04-06T02:37:13;5.40;53.60
27266;DHT22;14766;51.380;13.762;2023-04-06T02:39:40;5.40;53.80
27266;DHT22;14766;51.380;13.762;2023-04-06T02:42:08;5.40;53.90
27266;DHT22;14766;51.380;13.762;2023-04-06T02:44:35;5.40;53.90
27266;DHT22;14766;51.380;13.762;2023-04-06T02:47:02;5.30;54.10
27266;DHT22;14766;51.380;13.762;2023-04-06T02:49:30;5.30;54.10
27266;DHT22;14766;51.380;13.762;2023-04-06T02:51:59;5.20;54.20
27266;DHT22;14766;51.380;13.762;2023-04-06T02:54:34;5.20;54.30
27266;DHT22;14766;51.380;13.762;2023-04-06T02:57:02;5.20;54.60
27266;DHT22;14766;51.380;13.762;2023-04-06T02:59:37;5.20;54.70
27266;DHT22;14766;51.380;13.762;2023-04-06T03:02:20;5.20;54.80
27266;DHT22;14766;51.380;13.762;2023-04-06T03:04:49;5.20;54.70
27266;DHT22;14766;51.380;13.762;2023-04-06T03:07:23;5.20;54.70
27266;DHT22;14766;51.380;13.762;2023-04-06T03:09:50;5.20;54.70
27266;DHT22;14766;51.380;13.762;2023-04-06T03:12:18;5.20;54.70
27266;DHT22;14766;51.380;13.762;2023-04-06T03:15:10;5.20;54.70
27266;DHT22;14766;51.380;13.762;2023-04-06T03:17:43;5.10;54.70
27266;DHT22;14766;51.380;13.762;2023-04-06T03:20:19;5.10;54.70
27266;DHT22;14766;51.380;13.762;2023-04-06T03:22:48;5.10;54.70
27266;DHT22;14766;51.380;13.762;2023-04-06T03:25:18;5.10;54.70
27266;DHT22;14766;51.380;13.762;2023-04-06T03:27:45;5.10;54.80
27266;DHT22;14766;51.380;13.762;2023-04-06T03:30:16;5.10;54.70
27266;DHT22;14766;51.380;13.762;2023-04-06T03:32:45;5.10;54.70
27266;DHT22;14766;51.380;13.762;2023-04-06T03:35:13;5.10;54.50
27266;DHT22;14766;51.380;13.762;2023-04-06T03:37:41;5.00;54.50
27266;DHT22;14766;51.380;13.762;2023-04-06T03:40:09;5.00;54.60
27266;DHT22;14766;51.380;13.762;2023-04-06T03:42:37;5.00;54.60
27266;DHT22;14766;51.380;13.762;2023-04-06T03:45:10;5.00;54.70
27266;DHT22;14766;51.380;13.762;2023-04-06T03:47:43;4.90;54.60
27266;DHT22;14766;51.380;13.762;2023-04-06T03:50:11;4.90;54.80
27266;DHT22;14766;51.380;13.762;2023-04-06T03:52:38;4.90;55.00
27266;DHT22;14766;51.380;13.762;2023-04-06T03:55:06;4.90;55.00
27266;DHT22;14766;51.380;13.762;2023-04-06T03:57:35;4.90;55.10
27266;DHT22;14766;51.380;13.762;2023-04-06T04:00:03;4.80;55.00
27266;DHT22;14766;51.380;13.762;2023-04-06T04:02:38;4.80;55.00
27266;DHT22;14766;51.380;13.762;2023-04-06T04:05:06;4.90;55.10
27266;DHT22;14766;51.380;13.762;2023-04-06T04:07:33;4.90;55.10
27266;DHT22;14766;51.380;13.762;2023-04-06T04:10:01;4.80;55.00
27266;DHT22;14766;51.380;13.762;2023-04-06T04:12:33;4.80;55.00
27266;DHT22;14766;51.380;13.762;2023-04-06T04:15:01;4.80;55.00
27266;DHT22;14766;51.380;13.762;2023-04-06T04:17:29;4.80;55.20
27266;DHT22;14766;51.380;13.762;2023-04-06T04:19:57;4.80;55.30
27266;DHT22;14766;51.380;13.762;2023-04-06T04:22:25;4.80;55.20
27266;DHT22;14766;51.380;13.762;2023-04-06T04:24:54;4.80;55.20
27266;DHT22;14766;51.380;13.762;2023-04-06T04:27:22;4.70;55.30
27266;DHT22;14766;51.380;13.762;2023-04-06T04:29:51;4.80;55.30
27266;DHT22;14766;51.380;13.762;2023-04-06T04:32:19;4.80;55.30
27266;DHT22;14766;51.380;13.762;2023-04-06T04:34:47;4.70;55.30
27266;DHT22;14766;51.380;13.762;2023-04-06T04:37:27;4.70;55.50
27266;DHT22;14766;51.380;13.762;2023-04-06T04:39:55;4.70;55.50
27266;DHT22;14766;51.380;13.762;2023-04-06T04:42:24;4.70;55.60
27266;DHT22;14766;51.380;13.762;2023-04-06T04:44:56;4.70;55.60
27266;DHT22;14766;51.380;13.762;2023-04-06T04:47:41;4.70;55.80
27266;DHT22;14766;51.380;13.762;2023-04-06T04:50:11;4.70;56.00
27266;DHT22;14766;51.380;13.762;2023-04-06T04:52:42;4.60;56.00
27266;DHT22;14766;51.380;13.762;2023-04-06T04:55:29;4.60;56.10
27266;DHT22;14766;51.380;13.762;2023-04-06T04:57:58;4.60;56.20
27266;DHT22;14766;51.380;13.762;2023-04-06T05:00:42;4.60;56.10
27266;DHT22;14766;51.380;13.762;2023-04-06T05:03:17;4.60;56.00
27266;DHT22;14766;51.380;13.762;2023-04-06T05:05:48;4.60;56.00
27266;DHT22;14766;51.380;13.762;2023-04-06T05:08:17;4.60;56.10
27266;DHT22;14766;51.380;13.762;2023-04-06T05:10:47;4.60;56.00
27266;DHT22;14766;51.380;13.762;2023-04-06T05:13:15;4.60;56.10
27266;DHT22;14766;51.380;13.762;2023-04-06T05:15:45;4.60;56.20
27266;DHT22;14766;51.380;13.762;2023-04-06T05:18:22;4.60;56.20
27266;DHT22;14766;51.380;13.762;2023-04-06T05:20:50;4.70;56.40
27266;DHT22;14766;51.380;13.762;2023-04-06T05:23:22;4.70;56.40
27266;DHT22;14766;51.380;13.762;2023-04-06T05:25:51;4.80;56.40
27266;DHT22;14766;51.380;13.762;2023-04-06T05:28:21;4.80;56.40
27266;DHT22;14766;51.380;13.762;2023-04-06T05:30:49;4.80;56.30
27266;DHT22;14766;51.380;13.762;2023-04-06T05:33:18;4.80;56.40
27266;DHT22;14766;51.380;13.762;2023-04-06T05:36:01;4.80;56.60
27266;DHT22;14766;51.380;13.762;2023-04-06T05:38:31;4.90;56.70
27266;DHT22;14766;51.380;13.762;2023-04-06T05:41:07;4.90;56.60
27266;DHT22;14766;51.380;13.762;2023-04-06T05:43:38;5.00;56.60
27266;DHT22;14766;51.380;13.762;2023-04-06T05:46:06;5.00;56.50
27266;DHT22;14766;51.380;13.762;2023-04-06T05:48:36;5.10;56.40
27266;DHT22;14766;51.380;13.762;2023-04-06T05:51:03;5.20;56.40
27266;DHT22;14766;51.380;13.762;2023-04-06T05:53:41;5.20;56.40
27266;DHT22;14766;51.380;13.762;2023-04-06T05:56:10;5.30;56.50
27266;DHT22;14766;51.380;13.762;2023-04-06T05:58:37;5.40;56.50
27266;DHT22;14766;51.380;13.762;2023-04-06T06:01:05;5.50;56.50
27266;DHT22;14766;51.380;13.762;2023-04-06T06:03:38;5.50;56.50
27266;DHT22;14766;51.380;13.762;2023-04-06T06:06:06;5.60;56.30
27266;DHT22;14766;51.380;13.762;2023-04-06T06:08:43;5.70;56.20
27266;DHT22;14766;51.380;13.762;2023-04-06T06:11:14;5.80;56.10
27266;DHT22;14766;51.380;13.762;2023-04-06T06:13:41;5.90;55.90
27266;DHT22;14766;51.380;13.762;2023-04-06T06:16:09;6.00;55.80
27266;DHT22;14766;51.380;13.762;2023-04-06T06:18:42;6.10;55.80
27266;DHT22;14766;51.380;13.762;2023-04-06T06:21:10;6.20;55.90
27266;DHT22;14766;51.380;13.762;2023-04-06T06:23:39;6.30;55.80
27266;DHT22;14766;51.380;13.762;2023-04-06T06:26:06;6.50;55.80
27266;DHT22;14766;51.380;13.762;2023-04-06T06:28:34;6.60;55.70
27266;DHT22;14766;51.380;13.762;2023-04-06T06:31:01;6.70;55.50
27266;DHT22;14766;51.380;13.762;2023-04-06T06:33:29;6.90;55.20
27266;DHT22;14766;51.380;13.762;2023-04-06T06:35:57;7.00;55.70
27266;DHT22;14766;51.380;13.762;2023-04-06T06:38:25;7.20;55.00
27266;DHT22;14766;51.380;13.762;2023-04-06T06:40:52;7.40;54.80
27266;DHT22;14766;51.380;13.762;2023-04-06T06:43:21;7.80;54.70
27266;DHT22;14766;51.380;13.762;2023-04-06T06:45:54;8.10;54.70
27266;DHT22;14766;51.380;13.762;2023-04-06T06:48:21;8.60;54.30
27266;DHT22;14766;51.380;13.762;2023-04-06T06:50:49;9.10;53.70
27266;DHT22;14766;51.380;13.762;2023-04-06T06:53:16;9.70;53.90
27266;DHT22;14766;51.380;13.762;2023-04-06T06:55:43;10.20;52.50
27266;DHT22;14766;51.380;13.762;2023-04-06T06:58:11;10.80;51.80
27266;DHT22;14766;51.380;13.762;2023-04-06T07:00:38;11.40;50.80
27266;DHT22;14766;51.380;13.762;2023-04-06T07:03:06;11.90;49.30
27266;DHT22;14766;51.380;13.762;2023-04-06T07:05:33;12.50;47.80
27266;DHT22;14766;51.380;13.762;2023-04-06T07:08:00;13.00;47.00
27266;DHT22;14766;51.380;13.762;2023-04-06T07:10:27;13.60;45.90
27266;DHT22;14766;51.380;13.762;2023-04-06T07:12:55;14.00;44.60
27266;DHT22;14766;51.380;13.762;2023-04-06T07:15:24;14.50;43.40
27266;DHT22;14766;51.380;13.762;2023-04-06T07:17:51;14.90;42.60
27266;DHT22;14766;51.380;13.762;2023-04-06T07:20:19;15.30;42.40
27266;DHT22;14766;51.380;13.762;2023-04-06T07:22:46;15.70;41.30
27266;DHT22;14766;51.380;13.762;2023-04-06T07:25:14;16.10;39.10
27266;DHT22;14766;51.380;13.762;2023-04-06T07:27:42;16.40;38.20
27266;DHT22;14766;51.380;13.762;2023-04-06T07:30:11;16.70;37.90
27266;DHT22;14766;51.380;13.762;2023-04-06T07:32:38;17.00;37.40
27266;DHT22;14766;51.380;13.762;2023-04-06T07:35:07;17.20;36.50
27266;DHT22;14766;51.380;13.762;2023-04-06T07:37:34;17.50;35.50
27266;DHT22;14766;51.380;13.762;2023-04-06T07:40:02;17.70;34.40
27266;DHT22;14766;51.380;13.762;2023-04-06T07:42:29;17.90;34.10
27266;DHT22;14766;51.380;13.762;2023-04-06T07:44:56;18.10;33.10
27266;DHT22;14766;51.380;13.762;2023-04-06T07:47:24;18.30;33.20
27266;DHT22;14766;51.380;13.762;2023-04-06T07:49:51;18.50;32.40
27266;DHT22;14766;51.380;13.762;2023-04-06T07:52:18;18.70;32.50
27266;DHT22;14766;51.380;13.762;2023-04-06T07:54:47;18.90;31.90
27266;DHT22;14766;51.380;13.762;2023-04-06T07:57:17;19.10;31.30
27266;DHT22;14766;51.380;13.762;2023-04-06T07:59:44;19.30;30.30
27266;DHT22;14766;51.380;13.762;2023-04-06T08:02:12;19.40;30.00
27266;DHT22;14766;51.380;13.762;2023-04-06T08:04:39;19.50;29.00
27266;DHT22;14766;51.380;13.762;2023-04-06T08:07:07;19.60;29.80
27266;DHT22;14766;51.380;13.762;2023-04-06T08:09:36;19.70;28.80
27266;DHT22;14766;51.380;13.762;2023-04-06T08:12:07;19.80;28.60
27266;DHT22;14766;51.380;13.762;2023-04-06T08:14:36;19.80;28.40
27266;DHT22;14766;51.380;13.762;2023-04-06T08:17:03;19.90;27.30
27266;DHT22;14766;51.380;13.762;2023-04-06T08:19:32;20.00;27.50
27266;DHT22;14766;51.380;13.762;2023-04-06T08:21:59;20.00;27.70
27266;DHT22;14766;51.380;13.762;2023-04-06T08:24:27;20.10;27.10
27266;DHT22;14766;51.380;13.762;2023-04-06T08:26:54;20.20;27.00
27266;DHT22;14766;51.380;13.762;2023-04-06T08:29:21;20.30;26.30
27266;DHT22;14766;51.380;13.762;2023-04-06T08:31:48;20.40;26.00
27266;DHT22;14766;51.380;13.762;2023-04-06T08:34:15;20.50;26.00
27266;DHT22;14766;51.380;13.762;2023-04-06T08:36:42;20.60;25.40
27266;DHT22;14766;51.380;13.762;2023-04-06T08:39:09;20.70;25.10
27266;DHT22;14766;51.380;13.762;2023-04-06T08:41:36;20.80;25.30
27266;DHT22;14766;51.380;13.762;2023-04-06T08:44:04;20.90;25.00
27266;DHT22;14766;51.380;13.762;2023-04-06T08:46:31;21.00;24.10
27266;DHT22;14766;51.380;13.762;2023-04-06T08:49:00;21.00;23.80
27266;DHT22;14766;51.380;13.762;2023-04-06T08:51:29;21.00;24.00
27266;DHT22;14766;51.380;13.762;2023-04-06T08:53:58;21.00;24.00
27266;DHT22;14766;51.380;13.762;2023-04-06T08:56:27;21.10;24.20
27266;DHT22;14766;51.380;13.762;2023-04-06T08:58:55;21.10;24.10
27266;DHT22;14766;51.380;13.762;2023-04-06T09:01:26;21.20;23.80
27266;DHT22;14766;51.380;13.762;2023-04-06T09:03:59;21.30;23.50
27266;DHT22;14766;51.380;13.762;2023-04-06T09:06:27;21.40;23.20
27266;DHT22;14766;51.380;13.762;2023-04-06T09:08:55;21.50;23.30
27266;DHT22;14766;51.380;13.762;2023-04-06T09:11:23;21.60;22.30
27266;DHT22;14766;51.380;13.762;2023-04-06T09:13:55;21.70;22.30
27266;DHT22;14766;51.380;13.762;2023-04-06T09:16:23;21.70;23.00
27266;DHT22;14766;51.380;13.762;2023-04-06T09:18:51;21.80;22.80
27266;DHT22;14766;51.380;13.762;2023-04-06T09:21:19;21.90;21.90
27266;DHT22;14766;51.380;13.762;2023-04-06T09:24:01;22.00;22.00
27266;DHT22;14766;51.380;13.762;2023-04-06T09:26:29;22.00;21.40
27266;DHT22;14766;51.380;13.762;2023-04-06T09:28:59;22.10;21.60
27266;DHT22;14766;51.380;13.762;2023-04-06T09:31:31;22.10;21.10
27266;DHT22;14766;51.380;13.762;2023-04-06T09:34:01;22.10;21.30
27266;DHT22;14766;51.380;13.762;2023-04-06T09:36:34;22.20;20.90
27266;DHT22;14766;51.380;13.762;2023-04-06T09:39:05;22.20;21.00
27266;DHT22;14766;51.380;13.762;2023-04-06T09:41:34;22.30;21.50
27266;DHT22;14766;51.380;13.762;2023-04-06T09:44:09;22.40;21.90
27266;DHT22;14766;51.380;13.762;2023-04-06T09:46:41;22.60;21.90
27266;DHT22;14766;51.380;13.762;2023-04-06T09:49:30;22.70;21.40
27266;DHT22;14766;51.380;13.762;2023-04-06T09:52:06;22.80;20.90
27266;DHT22;14766;51.380;13.762;2023-04-06T09:54:35;22.80;20.40
27266;DHT22;14766;51.380;13.762;2023-04-06T10:02:33;22.60;19.90
27266;DHT22;14766;51.380;13.762;2023-04-06T10:07:35;22.20;20.80
27266;DHT22;14766;51.380;13.762;2023-04-06T10:10:22;22.00;20.90
27266;DHT22;14766;51.380;13.762;2023-04-06T10:12:49;21.70;20.90
27266;DHT22;14766;51.380;13.762;2023-04-06T10:15:19;21.50;20.60
27266;DHT22;14766;51.380;13.762;2023-04-06T10:17:48;21.30;20.90
27266;DHT22;14766;51.380;13.762;2023-04-06T10:20:23;21.10;21.50
27266;DHT22;14766;51.380;13.762;2023-04-06T10:23:19;20.70;20.70
27266;DHT22;14766;51.380;13.762;2023-04-06T10:25:58;20.30;21.00
27266;DHT22;14766;51.380;13.762;2023-04-06T10:28:30;19.90;21.60
27266;DHT22;14766;51.380;13.762;2023-04-06T10:30:59;19.50;21.90
27266;DHT22;14766;51.380;13.762;2023-04-06T10:33:27;19.20;22.50
27266;DHT22;14766;51.380;13.762;2023-04-06T10:35:57;18.90;22.60
27266;DHT22;14766;51.380;13.762;2023-04-06T10:38:38;18.70;22.80
27266;DHT22;14766;51.380;13.762;2023-04-06T10:41:10;18.50;23.10
27266;DHT22;14766;51.380;13.762;2023-04-06T10:43:40;18.40;23.20
27266;DHT22;14766;51.380;13.762;2023-04-06T10:46:08;18.20;22.30
27266;DHT22;14766;51.380;13.762;2023-04-06T10:48:40;18.10;22.70
27266;DHT22;14766;51.380;13.762;2023-04-06T10:51:13;17.90;23.00
27266;DHT22;14766;51.380;13.762;2023-04-06T10:53:46;17.80;23.60
27266;DHT22;14766;51.380;13.762;2023-04-06T10:56:16;17.70;23.90
27266;DHT22;14766;51.380;13.762;2023-04-06T10:58:48;17.60;24.10
27266;DHT22;14766;51.380;13.762;2023-04-06T11:01:18;17.50;24.00
27266;DHT22;14766;51.380;13.762;2023-04-06T11:03:48;17.40;24.00
27266;DHT22;14766;51.380;13.762;2023-04-06T11:08:51;17.20;24.30
27266;DHT22;14766;51.380;13.762;2023-04-06T11:11:21;17.10;24.60
27266;DHT22;14766;51.380;13.762;2023-04-06T11:13:57;17.00;24.50
27266;DHT22;14766;51.380;13.762;2023-04-06T11:16:30;16.90;24.40
27266;DHT22;14766;51.380;13.762;2023-04-06T11:19:07;16.90;24.40
27266;DHT22;14766;51.380;13.762;2023-04-06T11:21:41;16.90;24.70
27266;DHT22;14766;51.380;13.762;2023-04-06T11:24:22;16.90;24.80
27266;DHT22;14766;51.380;13.762;2023-04-06T11:26:56;16.90;24.70
27266;DHT22;14766;51.380;13.762;2023-04-06T11:29:28;16.90;24.80
27266;DHT22;14766;51.380;13.762;2023-04-06T11:32:03;17.00;24.70
27266;DHT22;14766;51.380;13.762;2023-04-06T11:34:33;17.00;24.40
27266;DHT22;14766;51.380;13.762;2023-04-06T11:37:06;17.00;24.60
27266;DHT22;14766;51.380;13.762;2023-04-06T11:42:22;17.10;24.90
27266;DHT22;14766;51.380;13.762;2023-04-06T11:44:56;17.20;24.50
27266;DHT22;14766;51.380;13.762;2023-04-06T11:47:32;17.30;24.50
27266;DHT22;14766;51.380;13.762;2023-04-06T11:52:42;17.40;24.30
27266;DHT22;14766;51.380;13.762;2023-04-06T11:55:16;17.50;24.50
27266;DHT22;14766;51.380;13.762;2023-04-06T11:57:44;17.50;25.00
27266;DHT22;14766;51.380;13.762;2023-04-06T12:00:12;17.50;24.60
27266;DHT22;14766;51.380;13.762;2023-04-06T12:02:40;17.50;24.00
27266;DHT22;14766;51.380;13.762;2023-04-06T12:05:12;17.60;24.30
27266;DHT22;14766;51.380;13.762;2023-04-06T12:07:39;17.50;24.20
27266;DHT22;14766;51.380;13.762;2023-04-06T12:10:07;17.50;24.40
27266;DHT22;14766;51.380;13.762;2023-04-06T12:12:36;17.60;24.50
27266;DHT22;14766;51.380;13.762;2023-04-06T12:15:03;17.60;24.40
27266;DHT22;14766;51.380;13.762;2023-04-06T12:17:31;17.60;24.20
27266;DHT22;14766;51.380;13.762;2023-04-06T12:19:58;17.60;24.00
27266;DHT22;14766;51.380;13.762;2023-04-06T12:22:31;17.70;24.00
27266;DHT22;14766;51.380;13.762;2023-04-06T12:24:59;17.70;24.30
27266;DHT22;14766;51.380;13.762;2023-04-06T12:27:27;17.80;24.20
27266;DHT22;14766;51.380;13.762;2023-04-06T12:29:54;17.80;24.20
27266;DHT22;14766;51.380;13.762;2023-04-06T12:32:25;17.80;24.20
27266;DHT22;14766;51.380;13.762;2023-04-06T12:34:52;17.80;24.10
27266;DHT22;14766;51.380;13.762;2023-04-06T12:37:20;17.80;23.90
27266;DHT22;14766;51.380;13.762;2023-04-06T12:39:47;17.60;23.70
27266;DHT22;14766;51.380;13.762;2023-04-06T12:42:14;17.60;23.90
27266;DHT22;14766;51.380;13.762;2023-04-06T12:44:41;17.50;23.70
27266;DHT22;14766;51.380;13.762;2023-04-06T12:47:10;17.40;23.90
27266;DHT22;14766;51.380;13.762;2023-04-06T12:49:38;17.30;23.80
27266;DHT22;14766;51.380;13.762;2023-04-06T12:52:05;17.30;23.90
27266;DHT22;14766;51.380;13.762;2023-04-06T12:54:35;17.30;24.10
27266;DHT22;14766;51.380;13.762;2023-04-06T12:57:02;17.30;24.20
27266;DHT22;14766;51.380;13.762;2023-04-06T12:59:29;17.20;24.20
27266;DHT22;14766;51.380;13.762;2023-04-06T13:02:03;17.30;24.30
27266;DHT22;14766;51.380;13.762;2023-04-06T13:04:31;17.30;24.40
27266;DHT22;14766;51.380;13.762;2023-04-06T13:06:58;17.40;24.30
27266;DHT22;14766;51.380;13.762;2023-04-06T13:09:26;17.40;24.20
27266;DHT22;14766;51.380;13.762;2023-04-06T13:11:53;17.40;24.20
27266;DHT22;14766;51.380;13.762;2023-04-06T13:14:21;17.40;24.10
27266;DHT22;14766;51.380;13.762;2023-04-06T13:16:51;17.40;24.30
27266;DHT22;14766;51.380;13.762;2023-04-06T13:19:20;17.30;24.70
27266;DHT22;14766;51.380;13.762;2023-04-06T13:21:49;17.30;24.70
27266;DHT22;14766;51.380;13.762;2023-04-06T13:24:16;17.30;24.70
27266;DHT22;14766;51.380;13.762;2023-04-06T13:26:43;17.20;24.90
27266;DHT22;14766;51.380;13.762;2023-04-06T13:29:10;17.20;24.80
27266;DHT22;14766;51.380;13.762;2023-04-06T13:31:38;17.10;24.80
27266;DHT22;14766;51.380;13.762;2023-04-06T13:34:06;17.10;24.80
27266;DHT22;14766;51.380;13.762;2023-04-06T13:36:33;17.00;24.80
27266;DHT22;14766;51.380;13.762;2023-04-06T13:39:00;16.90;24.60
27266;DHT22;14766;51.380;13.762;2023-04-06T13:41:27;16.80;24.90
27266;DHT22;14766;51.380;13.762;2023-04-06T13:43:54;16.70;24.90
27266;DHT22;14766;51.380;13.762;2023-04-06T13:46:21;16.60;25.10
27266;DHT22;14766;51.380;13.762;2023-04-06T13:48:51;16.60;25.00
27266;DHT22;14766;51.380;13.762;2023-04-06T13:51:19;16.50;25.10
27266;DHT22;14766;51.380;13.762;2023-04-06T13:53:46;16.50;25.20
27266;DHT22;14766;51.380;13.762;2023-04-06T13:56:13;16.40;25.10
27266;DHT22;14766;51.380;13.762;2023-04-06T13:58:40;16.40;25.10
27266;DHT22;14766;51.380;13.762;2023-04-06T14:01:08;16.30;25.10
27266;DHT22;14766;51.380;13.762;2023-04-06T14:03:37;16.30;25.20
27266;DHT22;14766;51.380;13.762;2023-04-06T14:06:12;16.20;25.30
27266;DHT22;14766;51.380;13.762;2023-04-06T14:08:57;16.20;25.40
27266;DHT22;14766;51.380;13.762;2023-04-06T14:11:24;16.10;25.60
27266;DHT22;14766;51.380;13.762;2023-04-06T14:13:51;16.10;25.60
27266;DHT22;14766;51.380;13.762;2023-04-06T14:16:18;16.00;25.60
27266;DHT22;14766;51.380;13.762;2023-04-06T14:18:48;16.00;25.70
27266;DHT22;14766;51.380;13.762;2023-04-06T14:21:15;16.00;25.80
27266;DHT22;14766;51.380;13.762;2023-04-06T14:23:44;16.00;25.80
27266;DHT22;14766;51.380;13.762;2023-04-06T14:26:12;16.00;25.70
27266;DHT22;14766;51.380;13.762;2023-04-06T14:28:39;15.90;25.60
27266;DHT22;14766;51.380;13.762;2023-04-06T14:31:12;15.90;25.30
27266;DHT22;14766;51.380;13.762;2023-04-06T14:33:42;15.80;25.10
27266;DHT22;14766;51.380;13.762;2023-04-06T14:36:09;15.80;25.30
27266;DHT22;14766;51.380;13.762;2023-04-06T14:38:37;15.70;25.30
27266;DHT22;14766;51.380;13.762;2023-04-06T14:41:05;15.60;25.40
27266;DHT22;14766;51.380;13.762;2023-04-06T14:43:32;15.60;25.50
27266;DHT22;14766;51.380;13.762;2023-04-06T14:46:03;15.60;25.60
27266;DHT22;14766;51.380;13.762;2023-04-06T14:48:31;15.50;25.60
27266;DHT22;14766;51.380;13.762;2023-04-06T14:50:58;15.40;25.70
27266;DHT22;14766;51.380;13.762;2023-04-06T14:53:25;15.40;25.90
27266;DHT22;14766;51.380;13.762;2023-04-06T14:55:53;15.30;26.10
27266;DHT22;14766;51.380;13.762;2023-04-06T14:58:22;15.30;26.30
27266;DHT22;14766;51.380;13.762;2023-04-06T15:00:58;15.30;26.40
27266;DHT22;14766;51.380;13.762;2023-04-06T15:03:26;15.20;26.50
27266;DHT22;14766;51.380;13.762;2023-04-06T15:05:55;15.20;26.60
27266;DHT22;14766;51.380;13.762;2023-04-06T15:08:23;15.20;26.70
27266;DHT22;14766;51.380;13.762;2023-04-06T15:10:51;15.20;26.70
27266;DHT22;14766;51.380;13.762;2023-04-06T15:13:18;15.10;26.80
27266;DHT22;14766;51.380;13.762;2023-04-06T15:15:45;15.10;27.00
27266;DHT22;14766;51.380;13.762;2023-04-06T15:18:12;15.10;27.10
27266;DHT22;14766;51.380;13.762;2023-04-06T15:20:40;15.10;27.00
27266;DHT22;14766;51.380;13.762;2023-04-06T15:23:07;15.10;27.00
27266;DHT22;14766;51.380;13.762;2023-04-06T15:25:36;15.10;27.00
27266;DHT22;14766;51.380;13.762;2023-04-06T15:28:03;15.00;26.90
27266;DHT22;14766;51.380;13.762;2023-04-06T15:30:31;15.00;26.80
27266;DHT22;14766;51.380;13.762;2023-04-06T15:33:00;15.10;26.80
27266;DHT22;14766;51.380;13.762;2023-04-06T15:35:28;15.00;26.50
27266;DHT22;14766;51.380;13.762;2023-04-06T15:37:56;15.00;26.60
27266;DHT22;14766;51.380;13.762;2023-04-06T15:40:24;15.00;26.50
27266;DHT22;14766;51.380;13.762;2023-04-06T15:42:52;15.00;26.50
27266;DHT22;14766;51.380;13.762;2023-04-06T15:45:19;15.00;26.60
27266;DHT22;14766;51.380;13.762;2023-04-06T15:47:46;14.90;26.50
27266;DHT22;14766;51.380;13.762;2023-04-06T15:50:13;14.90;26.70
27266;DHT22;14766;51.380;13.762;2023-04-06T15:52:41;14.90;26.80
27266;DHT22;14766;51.380;13.762;2023-04-06T15:55:09;14.90;26.90